Time;durP1;ratioP1;P1;durP2;ratioP2;P2;SDS_P1;SDS_P2;PMS_P1;PMS_P2;Temp;Humidity;BMP_temperature;BMP_pressure;BME280_temperature;BME280_humidity;BME280_pressure;Samples;Min_cycle;Max_cycle;Signal;HPM_P1;HPM_P2
2024/01/03 00:02:19;;;;;;;;;;;;;;;9.83;84.63;98658.72;5037338;28;20011;-80
2024/01/03 00:04:44;;;;;;;;;;;;;;;9.93;84.93;98643.44;5020909;28;19925;-77
2024/01/03 00:07:10;;;;;;;;;;;;;;;9.85;85.56;98670.78;5022267;28;19936;-86
2024/01/03 00:09:35;;;;;;;;;;;;;;;9.86;86.06;98674.25;5047818;28;20280;-88
2024/01/03 00:12:02;;;;;;;;;;;;;;;9.80;85.65;98680.59;5048291;28;20284;-81
2024/01/03 00:14:31;;;;;;;;;;;;;;;9.81;85.54;98673.59;5039198;28;20395;-80
2024/01/03 00:17:14;;;;;;;;;;;;;;;9.79;86.20;98678.91;5054031;28;19923;-83
2024/01/03 00:19:39;;;;;;;;;;;;;;;9.87;84.47;98678.59;5023755;28;19927;-81
2024/01/03 00:22:09;;;;;;;;;;;;;;;9.81;85.68;98687.56;5040566;28;19925;-82
2024/01/03 00:24:42;;;;;;;;;;;;;;;9.84;84.58;98687.41;5056793;28;19959;-84
2024/01/03 00:27:07;;;;;;;;;;;;;;;9.78;86.12;98699.91;5053812;28;20238;-78
2024/01/03 00:29:52;;;;;;;;;;;;;;;9.79;85.28;98715.53;5037305;28;20012;-84
2024/01/03 00:32:18;;;;;;;;;;;;;;;9.78;85.46;98715.59;5053658;28;19921;-85
2024/01/03 00:34:44;;;;;;;;;;;;;;;9.77;85.50;98688.59;5073644;28;19927;-79
2024/01/03 00:37:23;;;;;;;;;;;;;;;9.77;85.99;98700.81;5037338;28;19920;-85
2024/01/03 00:39:49;;;;;;;;;;;;;;;9.74;85.81;98714.88;5044005;28;19917;-84
2024/01/03 00:42:14;;;;;;;;;;;;;;;9.71;85.56;98728.94;5039034;28;19954;-82
2024/01/03 00:44:40;;;;;;;;;;;;;;;9.72;86.26;98729.78;5037221;28;20396;-83
2024/01/03 00:47:06;;;;;;;;;;;;;;;9.78;85.46;98728.66;5053649;28;20000;-82
2024/01/03 00:49:34;;;;;;;;;;;;;;;9.79;85.97;98714.69;5064656;28;19952;-80
2024/01/03 00:52:00;;;;;;;;;;;;;;;9.74;86.77;98716.63;5037586;28;19952;-82
2024/01/03 00:54:26;;;;;;;;;;;;;;;9.73;86.99;98728.03;5056841;28;20002;-80
2024/01/03 00:56:54;;;;;;;;;;;;;;;9.71;87.54;98717.59;5054451;28;19921;-83
2024/01/03 00:59:19;;;;;;;;;;;;;;;9.73;87.88;98725.41;5039105;28;19927;-80
2024/01/03 01:01:45;;;;;;;;;;;;;;;9.71;88.18;98720.22;5056533;28;20019;-78
2024/01/03 01:04:12;;;;;;;;;;;;;;;9.66;88.80;98743.13;5056599;28;19918;-78
2024/01/03 01:06:37;;;;;;;;;;;;;;;9.63;89.39;98736.25;5050231;28;19963;-83
2024/01/03 01:09:04;;;;;;;;;;;;;;;9.51;90.77;98741.97;5037739;28;20463;-84
2024/01/03 01:11:32;;;;;;;;;;;;;;;9.54;91.00;98758.41;5046155;28;19917;-81
2024/01/03 01:14:16;;;;;;;;;;;;;;;9.46;91.73;98767.47;5035576;28;19924;-84
2024/01/03 01:16:42;;;;;;;;;;;;;;;9.56;91.61;98749.66;5071490;28;19959;-82
2024/01/03 01:19:07;;;;;;;;;;;;;;;9.52;91.82;98760.22;5039334;28;19982;-83
2024/01/03 01:21:33;;;;;;;;;;;;;;;9.46;92.67;98757.84;5038397;28;19924;-83
2024/01/03 01:23:58;;;;;;;;;;;;;;;9.47;93.17;98761.34;5035806;28;19921;-79
2024/01/03 01:26:23;;;;;;;;;;;;;;;9.46;92.89;98765.69;5031461;28;20476;-80
2024/01/03 01:28:49;;;;;;;;;;;;;;;9.47;92.99;98756.94;5028441;28;20007;-80
2024/01/03 01:31:14;;;;;;;;;;;;;;;9.48;93.25;98768.25;5059269;28;19951;-82
2024/01/03 01:33:39;;;;;;;;;;;;;;;9.47;93.38;98780.47;5047142;28;19963;-77
2024/01/03 01:36:05;;;;;;;;;;;;;;;9.48;93.55;98787.41;5032496;28;19968;-84
2024/01/03 01:38:30;;;;;;;;;;;;;;;9.41;94.54;98777.25;5038705;28;20311;-83
2024/01/03 01:40:55;;;;;;;;;;;;;;;9.41;94.67;98787.69;5037198;28;20004;-85
2024/01/03 01:43:21;;;;;;;;;;;;;;;9.38;94.92;98793.06;5036996;28;19990;-82
2024/01/03 01:45:47;;;;;;;;;;;;;;;9.38;94.96;98775.63;5036913;28;20730;-84
2024/01/03 01:48:14;;;;;;;;;;;;;;;9.48;94.34;98786.53;5046676;28;19924;-83
2024/01/03 01:50:39;;;;;;;;;;;;;;;9.41;95.03;98795.53;5052058;28;19920;-83
2024/01/03 01:53:06;;;;;;;;;;;;;;;9.44;94.96;98777.13;5054227;28;19924;-84
2024/01/03 01:55:34;;;;;;;;;;;;;;;9.39;95.87;98798.22;5054487;28;20364;-82
2024/01/03 01:57:59;;;;;;;;;;;;;;;9.40;95.81;98801.72;5051348;28;19993;-84
2024/01/03 02:00:24;;;;;;;;;;;;;;;9.42;96.21;98802.47;5055180;28;20377;-81
2024/01/03 02:02:52;;;;;;;;;;;;;;;9.47;95.45;98803.16;5038646;28;19916;-84
2024/01/03 02:05:18;;;;;;;;;;;;;;;9.46;95.42;98812.75;5039510;28;20006;-81
2024/01/03 02:07:43;;;;;;;;;;;;;;;9.45;95.56;98818.91;5067878;28;20556;-79
2024/01/03 02:10:09;;;;;;;;;;;;;;;9.46;95.44;98825.81;5035250;28;20008;-79
2024/01/03 02:12:36;;;;;;;;;;;;;;;9.58;93.94;98818.41;5039172;28;19924;-78
2024/01/03 02:15:02;;;;;;;;;;;;;;;9.57;93.91;98830.63;5052401;28;20348;-81
2024/01/03 02:17:30;;;;;;;;;;;;;;;9.69;92.76;98814.44;5035185;28;19963;-78
2024/01/03 02:20:00;;;;;;;;;;;;;;;9.70;92.66;98824.00;5063642;28;19947;-80
2024/01/03 02:22:29;;;;;;;;;;;;;;;9.64;93.36;98821.63;5038673;28;19920;-84
2024/01/03 02:24:56;;;;;;;;;;;;;;;9.66;93.13;98824.19;5037281;28;20307;-84
2024/01/03 02:27:21;;;;;;;;;;;;;;;9.62;93.77;98833.91;5051277;28;20000;-82
2024/01/03 02:29:47;;;;;;;;;;;;;;;9.58;94.54;98824.47;5044450;28;20271;-81
2024/01/03 02:32:12;;;;;;;;;;;;;;;9.63;94.79;98824.31;5031822;28;19947;-83
2024/01/03 02:34:38;;;;;;;;;;;;;;;9.63;95.36;98833.00;5019879;28;19925;-79
2024/01/03 02:37:03;;;;;;;;;;;;;;;9.54;96.46;98825.53;5054389;28;20401;-85
2024/01/03 02:39:28;;;;;;;;;;;;;;;9.53;96.87;98829.06;5054539;28;19944;-81
2024/01/03 02:41:54;;;;;;;;;;;;;;;9.49;97.52;98837.94;5051879;28;20767;-81
2024/01/03 02:44:23;;;;;;;;;;;;;;;9.45;97.96;98826.75;5035078;28;19917;-82
2024/01/03 02:46:48;;;;;;;;;;;;;;;9.41;98.80;98835.63;5054869;28;19924;-82
2024/01/03 02:49:14;;;;;;;;;;;;;;;9.42;98.89;98828.63;5037967;28;19980;-82
2024/01/03 02:51:39;;;;;;;;;;;;;;;9.35;98.91;98828.88;5035890;28;19978;-83
2024/01/03 02:54:04;;;;;;;;;;;;;;;9.33;99.24;98838.53;5033240;28;19979;-83
2024/01/03 02:56:30;;;;;;;;;;;;;;;9.34;99.94;98840.22;5021098;28;19925;-82
2024/01/03 02:58:55;;;;;;;;;;;;;;;9.38;99.23;98843.59;5036386;28;19920;-79
2024/01/03 03:01:20;;;;;;;;;;;;;;;9.36;99.17;98838.41;5052713;28;19923;-82
2024/01/03 03:03:46;;;;;;;;;;;;;;;9.34;99.56;98842.84;5037764;28;19917;-81
2024/01/03 03:06:11;;;;;;;;;;;;;;;9.34;99.67;98840.22;5045681;28;19940;-83
2024/01/03 03:08:37;;;;;;;;;;;;;;;9.32;99.60;98842.06;5050053;28;20307;-87
2024/01/03 03:11:03;;;;;;;;;;;;;;;9.27;100.00;98840.53;5033162;28;19928;-81
2024/01/03 03:13:28;;;;;;;;;;;;;;;9.23;100.00;98847.63;5033302;28;19925;-82
2024/01/03 03:15:53;;;;;;;;;;;;;;;9.18;100.00;98845.19;5033977;28;19983;-82
2024/01/03 03:18:19;;;;;;;;;;;;;;;9.17;100.00;98843.50;5020442;28;19917;-84
2024/01/03 03:20:44;;;;;;;;;;;;;;;9.14;100.00;98846.22;5059603;28;19927;-83
2024/01/03 03:23:11;;;;;;;;;;;;;;;9.12;100.00;98839.34;5053879;28;19928;-85
2024/01/03 03:25:36;;;;;;;;;;;;;;;9.10;100.00;98841.19;5032947;28;20011;-84
2024/01/03 03:28:07;;;;;;;;;;;;;;;9.14;100.00;98848.00;5019048;28;20020;-83
2024/01/03 03:30:32;;;;;;;;;;;;;;;9.12;100.00;98849.78;5051153;28;19920;-81
2024/01/03 03:32:58;;;;;;;;;;;;;;;9.12;100.00;98852.41;5051010;28;20419;-83
2024/01/03 03:35:23;;;;;;;;;;;;;;;9.11;100.00;98858.56;5045597;28;20193;-82
2024/01/03 03:37:48;;;;;;;;;;;;;;;9.12;100.00;98853.28;5034095;28;19921;-82
2024/01/03 03:40:14;;;;;;;;;;;;;;;9.09;100.00;98858.59;5045516;28;19929;-80
2024/01/03 03:42:44;;;;;;;;;;;;;;;9.07;100.00;98868.25;5033830;28;19931;-82
2024/01/03 03:45:09;;;;;;;;;;;;;;;9.08;100.00;98851.69;5050483;28;20427;-82
2024/01/03 03:47:35;;;;;;;;;;;;;;;9.01;100.00;98852.81;5050608;28;19993;-79
2024/01/03 03:50:00;;;;;;;;;;;;;;;9.00;100.00;98851.94;5063585;28;20007;-82
2024/01/03 03:52:26;;;;;;;;;;;;;;;8.97;100.00;98861.69;5033974;28;20443;-82
2024/01/03 03:54:52;;;;;;;;;;;;;;;8.90;100.00;98854.97;5053777;28;20007;-80
2024/01/03 03:57:17;;;;;;;;;;;;;;;8.88;100.00;98862.88;5018383;28;20427;-82
2024/01/03 03:59:43;;;;;;;;;;;;;;;8.86;100.00;98861.22;5037056;28;19916;-83
2024/01/03 04:02:08;;;;;;;;;;;;;;;8.83;100.00;98860.44;5033699;28;20377;-81
2024/01/03 04:04:33;;;;;;;;;;;;;;;8.79;100.00;98852.75;5019941;28;20478;-80
2024/01/03 04:06:59;;;;;;;;;;;;;;;8.75;100.00;98861.59;5027235;28;19921;-78
2024/01/03 04:09:26;;;;;;;;;;;;;;;8.71;100.00;98854.81;5037363;28;19931;-80
2024/01/03 04:11:51;;;;;;;;;;;;;;;8.72;100.00;98851.25;5048494;28;19927;-82
2024/01/03 04:14:17;;;;;;;;;;;;;;;8.69;100.00;98851.38;5053890;28;20396;-81
2024/01/03 04:16:42;;;;;;;;;;;;;;;8.63;100.00;98853.31;5037792;28;19921;-82
2024/01/03 04:19:07;;;;;;;;;;;;;;;8.69;100.00;98856.59;5042053;28;19986;-79
2024/01/03 04:21:33;;;;;;;;;;;;;;;8.65;100.00;98875.00;5021733;28;20304;-81
2024/01/03 04:23:58;;;;;;;;;;;;;;;8.68;100.00;98868.81;5053636;28;19927;-78
2024/01/03 04:26:24;;;;;;;;;;;;;;;8.70;100.00;98873.97;5053026;28;20551;-80
2024/01/03 04:28:49;;;;;;;;;;;;;;;8.67;100.00;98872.31;5052847;28;19921;-80
2024/01/03 04:31:15;;;;;;;;;;;;;;;8.69;100.00;98880.94;5046083;28;20390;-82
2024/01/03 04:33:42;;;;;;;;;;;;;;;8.65;100.00;98872.38;5046795;28;19931;-81
2024/01/03 04:36:09;;;;;;;;;;;;;;;8.74;100.00;98875.59;5046090;28;19930;-81
2024/01/03 04:38:35;;;;;;;;;;;;;;;8.64;100.00;98875.06;5053674;28;19920;-85
2024/01/03 04:41:00;;;;;;;;;;;;;;;8.64;100.00;98886.34;5028356;28;19921;-81
2024/01/03 04:43:25;;;;;;;;;;;;;;;8.72;100.00;98882.59;5053442;28;19952;-85
2024/01/03 04:45:51;;;;;;;;;;;;;;;8.67;100.00;98881.00;5039781;28;20038;-83
2024/01/03 04:48:16;;;;;;;;;;;;;;;8.73;100.00;98881.69;5036675;28;19921;-82
2024/01/03 04:50:41;;;;;;;;;;;;;;;8.66;100.00;98891.50;5037318;28;20381;-83
2024/01/03 04:53:07;;;;;;;;;;;;;;;8.66;100.00;98897.59;5036815;28;19921;-82
2024/01/03 04:55:32;;;;;;;;;;;;;;;8.73;100.00;98889.53;5048832;28;19916;-83
2024/01/03 04:57:58;;;;;;;;;;;;;;;8.67;100.00;98891.44;5065150;28;20279;-80
2024/01/03 05:00:23;;;;;;;;;;;;;;;8.67;100.00;98886.22;5054978;28;19971;-83
2024/01/03 05:02:48;;;;;;;;;;;;;;;8.75;100.00;98887.72;5039662;28;19924;-80
2024/01/03 05:05:14;;;;;;;;;;;;;;;8.72;100.00;98893.03;5035200;28;19942;-81
2024/01/03 05:07:41;;;;;;;;;;;;;;;8.73;100.00;98906.03;5026715;28;20381;-83
2024/01/03 05:10:08;;;;;;;;;;;;;;;8.79;100.00;98894.53;5036376;28;19917;-81
2024/01/03 05:12:34;;;;;;;;;;;;;;;8.80;100.00;98891.03;5035903;28;19925;-82
2024/01/03 05:14:59;;;;;;;;;;;;;;;8.78;100.00;98893.69;5029010;28;19932;-84
2024/01/03 05:17:27;;;;;;;;;;;;;;;8.75;100.00;98898.16;5020199;28;19934;-80
2024/01/03 05:19:52;;;;;;;;;;;;;;;8.71;100.00;98896.59;5055756;28;20245;-82
2024/01/03 05:22:18;;;;;;;;;;;;;;;8.64;100.00;98896.78;5037639;28;20011;-80
2024/01/03 05:24:43;;;;;;;;;;;;;;;8.59;100.00;98897.84;5051307;28;19916;-79
2024/01/03 05:27:09;;;;;;;;;;;;;;;8.50;100.00;98909.47;5032427;28;19946;-81
2024/01/03 05:29:34;;;;;;;;;;;;;;;8.43;100.00;98902.72;5057372;28;19963;-77
2024/01/03 05:31:59;;;;;;;;;;;;;;;8.44;100.00;98902.69;5039147;28;20011;-78
2024/01/03 05:34:25;;;;;;;;;;;;;;;8.36;100.00;98909.03;5055613;28;19924;-80
2024/01/03 05:36:50;;;;;;;;;;;;;;;8.32;100.00;98910.91;5054828;28;19921;-82
2024/01/03 05:39:16;;;;;;;;;;;;;;;8.33;100.00;98902.16;5037459;28;19917;-83
2024/01/03 05:41:41;;;;;;;;;;;;;;;8.30;100.00;98910.09;5054417;28;19919;-81
2024/01/03 05:44:06;;;;;;;;;;;;;;;8.36;100.00;98901.22;5035659;28;19991;-80
2024/01/03 05:46:31;;;;;;;;;;;;;;;8.33;100.00;98910.88;5019074;28;19925;-80
2024/01/03 05:48:58;;;;;;;;;;;;;;;8.31;100.00;98919.63;5036827;28;20384;-81
2024/01/03 05:51:24;;;;;;;;;;;;;;;8.31;100.00;98907.44;5051347;28;19971;-79
2024/01/03 05:53:49;;;;;;;;;;;;;;;8.30;100.00;98904.88;5057063;28;19920;-85
2024/01/03 05:56:15;;;;;;;;;;;;;;;8.29;100.00;98905.81;5018665;28;19924;-82
2024/01/03 05:58:42;;;;;;;;;;;;;;;8.28;100.00;98904.09;5052366;28;20369;-79
2024/01/03 06:01:07;;;;;;;;;;;;;;;8.22;100.00;98907.75;5051954;28;20384;-80
2024/01/03 06:03:33;;;;;;;;;;;;;;;8.18;100.00;98908.75;5046433;28;19967;-79
2024/01/03 06:05:58;;;;;;;;;;;;;;;8.15;100.00;98908.88;5053455;28;19924;-81
2024/01/03 06:08:23;;;;;;;;;;;;;;;8.13;100.00;98915.88;5054622;28;20269;-82
2024/01/03 06:10:49;;;;;;;;;;;;;;;8.13;100.00;98915.88;5050846;28;20018;-77
2024/01/03 06:13:15;;;;;;;;;;;;;;;8.14;100.00;98917.59;5018831;28;19940;-82
2024/01/03 06:15:40;;;;;;;;;;;;;;;8.09;100.00;98915.13;5050291;28;19983;-82
2024/01/03 06:18:06;;;;;;;;;;;;;;;8.08;100.00;98928.22;5054961;28;19986;-84
2024/01/03 06:20:31;;;;;;;;;;;;;;;8.05;100.00;98912.69;5037591;28;20039;-81
2024/01/03 06:22:57;;;;;;;;;;;;;;;8.10;100.00;98923.78;5035993;28;20015;-80
2024/01/03 06:25:22;;;;;;;;;;;;;;;7.97;100.00;98926.81;5065207;28;19921;-80
2024/01/03 06:27:47;;;;;;;;;;;;;;;7.96;100.00;98929.47;5037292;28;19920;-79
2024/01/03 06:30:13;;;;;;;;;;;;;;;7.97;100.00;98924.22;5029200;28;19925;-80
2024/01/03 06:32:38;;;;;;;;;;;;;;;7.91;100.00;98928.75;5050183;28;19923;-78
2024/01/03 06:35:04;;;;;;;;;;;;;;;7.92;100.00;98933.09;5034456;28;19971;-77
2024/01/03 06:37:29;;;;;;;;;;;;;;;7.91;100.00;98924.38;5051295;28;19918;-78
2024/01/03 06:39:54;;;;;;;;;;;;;;;7.85;100.00;98919.38;5045222;28;20003;-78
2024/01/03 06:42:20;;;;;;;;;;;;;;;7.83;100.00;98921.19;5034083;28;19921;-78
2024/01/03 06:44:45;;;;;;;;;;;;;;;7.80;100.00;98921.25;5051392;28;20031;-78
2024/01/03 06:47:11;;;;;;;;;;;;;;;7.81;100.00;98920.38;5050461;28;20725;-77
2024/01/03 06:49:37;;;;;;;;;;;;;;;7.77;100.00;98918.75;5046789;28;19991;-78
2024/01/03 06:52:03;;;;;;;;;;;;;;;7.74;100.00;98926.66;5033830;28;20376;-78
2024/01/03 06:54:31;;;;;;;;;;;;;;;7.68;100.00;98924.25;5037005;28;19916;-78
2024/01/03 06:56:56;;;;;;;;;;;;;;;7.67;100.00;98938.19;5053184;28;20376;-77
2024/01/03 06:59:22;;;;;;;;;;;;;;;7.67;100.00;98938.19;5023011;28;19968;-78
2024/01/03 07:01:47;;;;;;;;;;;;;;;7.65;100.00;98930.41;5029590;28;20358;-77
2024/01/03 07:04:12;;;;;;;;;;;;;;;7.62;100.00;98930.50;5053967;28;19916;-79
2024/01/03 07:06:38;;;;;;;;;;;;;;;7.65;100.00;98929.56;5040161;28;19917;-79
2024/01/03 07:09:03;;;;;;;;;;;;;;;7.60;100.00;98951.41;5032172;28;20015;-79
2024/01/03 07:11:29;;;;;;;;;;;;;;;7.58;100.00;98947.97;5048010;28;19917;-78
2024/01/03 07:13:55;;;;;;;;;;;;;;;7.53;100.00;98949.03;5041644;28;19933;-79
2024/01/03 07:16:20;;;;;;;;;;;;;;;7.52;100.00;98937.75;5034700;28;19920;-78
2024/01/03 07:18:45;;;;;;;;;;;;;;;7.53;100.00;98944.69;5054082;28;19920;-79
2024/01/03 07:21:10;;;;;;;;;;;;;;;7.48;100.00;98943.09;5041036;28;19946;-79
2024/01/03 07:23:36;;;;;;;;;;;;;;;7.43;100.00;98958.88;5053620;28;20102;-79
2024/01/03 07:26:01;;;;;;;;;;;;;;;7.42;100.00;98964.97;5032543;28;19956;-78
2024/01/03 07:28:26;;;;;;;;;;;;;;;7.38;100.00;98958.16;5031194;28;19921;-79
2024/01/03 07:30:52;;;;;;;;;;;;;;;7.31;100.00;98956.63;5056369;28;19931;-77
2024/01/03 07:33:17;;;;;;;;;;;;;;;7.31;100.00;98956.63;5036671;28;19932;-79
2024/01/03 07:35:43;;;;;;;;;;;;;;;7.22;100.00;98961.19;5041912;28;19927;-80
2024/01/03 07:38:08;;;;;;;;;;;;;;;7.19;100.00;98969.09;5041153;28;20385;-79
2024/01/03 07:40:34;;;;;;;;;;;;;;;7.16;100.00;98963.13;5047417;28;20307;-80
2024/01/03 07:43:00;;;;;;;;;;;;;;;7.13;100.00;98969.28;5057405;28;20303;-80
2024/01/03 07:45:25;;;;;;;;;;;;;;;7.09;100.00;98970.25;5045895;28;19932;-82
2024/01/03 07:47:50;;;;;;;;;;;;;;;7.07;100.00;98970.28;5053086;28;19920;-79
2024/01/03 07:50:16;;;;;;;;;;;;;;;7.03;100.00;98971.28;5038156;28;19917;-81
2024/01/03 07:52:42;;;;;;;;;;;;;;;7.01;100.00;98977.41;5049254;28;19925;-81
2024/01/03 07:55:07;;;;;;;;;;;;;;;6.98;100.00;98986.16;5035130;28;19921;-82
2024/01/03 07:57:33;;;;;;;;;;;;;;;6.99;100.00;98987.03;5038863;28;20022;-82
2024/01/03 07:59:58;;;;;;;;;;;;;;;7.01;100.00;98982.63;5053006;28;19956;-83
2024/01/03 08:02:24;;;;;;;;;;;;;;;7.00;100.00;98993.94;5055958;28;20379;-82
2024/01/03 08:04:49;;;;;;;;;;;;;;;7.03;100.00;98983.44;5036985;28;20001;-82
2024/01/03 08:07:14;;;;;;;;;;;;;;;7.04;100.00;98987.75;5040424;28;20387;-81
2024/01/03 08:09:40;;;;;;;;;;;;;;;7.08;100.00;98997.19;5035915;28;19917;-84
2024/01/03 08:12:06;;;;;;;;;;;;;;;7.16;100.00;98987.41;5058719;28;19935;-84
2024/01/03 08:14:31;;;;;;;;;;;;;;;7.22;100.00;98991.59;5057226;28;20446;-83
2024/01/03 08:16:56;;;;;;;;;;;;;;;7.24;100.00;98997.63;5037717;28;19921;-85
2024/01/03 08:19:22;;;;;;;;;;;;;;;7.25;100.00;98984.53;5041924;28;19967;-83
2024/01/03 08:21:47;;;;;;;;;;;;;;;7.29;100.00;98991.38;5046361;28;19921;-85
2024/01/03 08:24:12;;;;;;;;;;;;;;;7.32;100.00;98995.66;5050762;28;20382;-83
2024/01/03 08:26:38;;;;;;;;;;;;;;;7.35;100.00;98997.31;5044683;28;19917;-81
2024/01/03 08:29:03;;;;;;;;;;;;;;;7.34;100.00;98995.59;5039361;28;20296;-83
2024/01/03 08:31:28;;;;;;;;;;;;;;;7.37;100.00;99000.72;5042242;28;19916;-82
2024/01/03 08:33:54;;;;;;;;;;;;;;;7.40;100.00;99000.66;5044256;28;19929;-84
2024/01/03 08:36:19;;;;;;;;;;;;;;;7.41;100.00;98991.94;5045563;28;20381;-83
2024/01/03 08:38:44;;;;;;;;;;;;;;;7.40;100.00;98996.31;5036823;28;19956;-83
2024/01/03 08:41:14;;;;;;;;;;;;;;;7.44;100.00;99004.88;5052276;28;20380;-82
2024/01/03 08:43:40;;;;;;;;;;;;;;;7.43;100.00;99003.19;5036695;28;20026;-83
2024/01/03 08:46:05;;;;;;;;;;;;;;;7.45;100.00;99004.81;5056532;28;19971;-83
2024/01/03 08:48:31;;;;;;;;;;;;;;;7.50;100.00;99009.06;5044712;28;19920;-83
2024/01/03 08:50:57;;;;;;;;;;;;;;;7.50;100.00;99016.88;5033560;28;20388;-82
2024/01/03 08:53:22;;;;;;;;;;;;;;;7.51;100.00;99016.81;5039039;28;20023;-81
2024/01/03 08:55:47;;;;;;;;;;;;;;;7.54;100.00;99015.91;5038190;28;19927;-83
2024/01/03 08:58:13;;;;;;;;;;;;;;;7.56;100.00;99019.34;5039577;28;20368;-84
2024/01/03 09:00:42;;;;;;;;;;;;;;;7.64;100.00;99022.53;5039687;28;19963;-84
2024/01/03 09:03:07;;;;;;;;;;;;;;;7.63;100.00;99026.91;5040171;28;19925;-82
2024/01/03 09:05:33;;;;;;;;;;;;;;;7.67;100.00;99021.59;5054154;28;19920;-84
2024/01/03 09:07:58;;;;;;;;;;;;;;;7.74;100.00;99018.81;5036196;28;19924;-82
2024/01/03 09:10:23;;;;;;;;;;;;;;;7.81;100.00;99016.84;5019075;28;19925;-85
2024/01/03 09:12:50;;;;;;;;;;;;;;;7.88;100.00;99028.81;5159117;23;19974;-82
2024/01/03 09:15:15;;;;;;;;;;;;;;;7.95;100.00;99022.50;5055791;28;20015;-79
2024/01/03 09:17:43;;;;;;;;;;;;;;;8.05;100.00;99027.47;5054120;28;19959;-80
2024/01/03 09:20:09;;;;;;;;;;;;;;;8.17;100.00;99029.66;5019025;28;20022;-80
2024/01/03 09:22:34;;;;;;;;;;;;;;;8.27;100.00;99043.28;5018973;28;19917;-83
2024/01/03 09:24:59;;;;;;;;;;;;;;;8.33;100.00;99027.44;5083862;23;19931;-83
2024/01/03 09:29:52;;;;;;;;;;;;;;;8.51;100.00;99028.66;5071248;28;20307;-74
2024/01/03 09:32:19;;;;;;;;;;;;;;;8.55;100.00;99032.88;5038666;28;19925;-74
2024/01/03 09:34:44;;;;;;;;;;;;;;;8.57;100.00;99041.50;5038757;28;20303;-74
2024/01/03 09:37:09;;;;;;;;;;;;;;;8.59;100.00;99042.31;5038858;28;19921;-74
2024/01/03 09:39:35;;;;;;;;;;;;;;;8.65;100.00;99049.09;5072897;28;20013;-74
2024/01/03 09:42:00;;;;;;;;;;;;;;;8.79;100.00;99048.63;5038020;28;19917;-73
2024/01/03 09:44:26;;;;;;;;;;;;;;;8.99;100.00;99051.44;5054460;28;21461;-74
2024/01/03 09:46:52;;;;;;;;;;;;;;;9.19;100.00;99049.88;5054701;28;20023;-73
2024/01/03 09:49:18;;;;;;;;;;;;;;;9.28;100.00;99044.34;5035226;28;19921;-76
2024/01/03 09:51:46;;;;;;;;;;;;;;;9.34;100.00;99049.34;5018552;28;19943;-74
2024/01/03 09:54:12;;;;;;;;;;;;;;;9.35;100.00;99060.66;5069416;28;19918;-74
2024/01/03 09:56:38;;;;;;;;;;;;;;;9.41;100.00;99049.13;5033924;28;19928;-75
2024/01/03 09:59:04;;;;;;;;;;;;;;;9.44;100.00;99049.88;5046766;28;19912;-74
2024/01/03 10:01:29;;;;;;;;;;;;;;;9.40;100.00;99055.28;5034024;28;20368;-74
2024/01/03 10:03:54;;;;;;;;;;;;;;;9.38;100.00;99054.47;5034893;28;20372;-74
2024/01/03 10:06:20;;;;;;;;;;;;;;;9.38;100.00;99055.34;5054134;28;19920;-73
2024/01/03 10:08:58;;;;;;;;;;;;;;;9.44;100.00;99064.69;5035984;28;19916;-83
2024/01/03 10:11:24;;;;;;;;;;;;;;;9.40;100.00;99058.75;5053953;28;19962;-84
2024/01/03 10:13:52;;;;;;;;;;;;;;;9.41;100.00;99056.97;5054287;28;19936;-74
2024/01/03 10:16:24;;;;;;;;;;;;;;;9.39;100.00;99066.63;5053950;28;19925;-74
2024/01/03 10:19:12;;;;;;;;;;;;;;;9.41;100.00;99065.69;5054530;28;20280;-74
2024/01/03 10:21:38;;;;;;;;;;;;;;;9.53;100.00;99064.38;5053544;28;20003;-74
2024/01/03 10:24:06;;;;;;;;;;;;;;;9.61;100.00;99067.59;5036894;28;19920;-74
2024/01/03 10:26:32;;;;;;;;;;;;;;;9.65;100.00;99069.16;5025666;28;19921;-74
2024/01/03 10:29:07;;;;;;;;;;;;;;;9.69;100.00;99072.53;5053387;28;19935;-74
2024/01/03 10:31:33;;;;;;;;;;;;;;;9.69;100.00;99075.97;5053956;28;19969;-74
2024/01/03 10:33:58;;;;;;;;;;;;;;;9.72;100.00;99064.56;5053701;28;20368;-82
2024/01/03 10:36:24;;;;;;;;;;;;;;;9.85;100.00;99073.66;5032814;28;19951;-84
2024/01/03 10:38:49;;;;;;;;;;;;;;;9.88;100.00;99080.53;5030241;28;20288;-85
2024/01/03 10:41:16;;;;;;;;;;;;;;;9.91;100.00;99069.97;5027183;28;19925;-81
2024/01/03 10:43:43;;;;;;;;;;;;;;;9.81;100.00;99079.94;5051620;28;19916;-82
2024/01/03 10:46:08;;;;;;;;;;;;;;;9.76;100.00;99078.41;5052934;28;19931;-82
2024/01/03 10:48:35;;;;;;;;;;;;;;;9.69;100.00;99090.84;5053883;28;19916;-83
2024/01/03 10:51:01;;;;;;;;;;;;;;;9.63;100.00;99091.91;5035123;28;19925;-80
2024/01/03 10:53:30;;;;;;;;;;;;;;;9.57;100.00;99086.91;5032673;28;19959;-82
2024/01/03 10:55:56;;;;;;;;;;;;;;;9.55;100.00;99083.47;5052827;28;20018;-81
2024/01/03 10:58:23;;;;;;;;;;;;;;;9.57;100.00;99091.25;5050349;28;20377;-84
2024/01/03 11:00:53;;;;;;;;;;;;;;;9.59;100.00;99074.63;5051331;28;20399;-74
2024/01/03 11:03:34;;;;;;;;;;;;;;;9.56;100.00;99087.81;5053692;28;20034;-74
2024/01/03 11:06:05;;;;;;;;;;;;;;;9.56;100.00;99089.56;5049001;28;19916;-73
2024/01/03 11:08:35;;;;;;;;;;;;;;;9.56;100.00;99073.88;5053485;28;19916;-75
2024/01/03 11:11:01;;;;;;;;;;;;;;;9.69;100.00;99062.06;5045866;28;19917;-74
2024/01/03 11:13:28;;;;;;;;;;;;;;;9.79;100.00;99060.81;5053389;28;19998;-74
2024/01/03 11:15:53;;;;;;;;;;;;;;;10.00;100.00;99069.63;5057554;28;19917;-74
2024/01/03 11:18:39;;;;;;;;;;;;;;;10.05;100.00;99067.66;5040062;28;21865;-74
2024/01/03 11:21:30;;;;;;;;;;;;;;;9.96;100.00;99075.88;5057048;28;19916;-74
2024/01/03 11:23:58;;;;;;;;;;;;;;;9.86;100.00;99071.91;5057869;28;19920;-73
2024/01/03 11:26:42;;;;;;;;;;;;;;;9.56;100.00;99074.72;5040410;28;19920;-74
2024/01/03 11:29:08;;;;;;;;;;;;;;;9.35;100.00;99079.81;5049841;28;19927;-74
2024/01/03 11:31:54;;;;;;;;;;;;;;;9.29;100.00;99094.84;5021401;28;20007;-74
2024/01/03 11:34:41;;;;;;;;;;;;;;;9.21;100.00;99079.44;5037152;28;19917;-73
2024/01/03 11:37:30;;;;;;;;;;;;;;;9.17;100.00;99068.22;5018130;28;19917;-74
2024/01/03 11:39:57;;;;;;;;;;;;;;;9.14;100.00;99064.88;5020896;28;19967;-74
2024/01/03 11:42:30;;;;;;;;;;;;;;;9.06;100.00;99069.50;5036834;28;19916;-74
2024/01/03 11:45:11;;;;;;;;;;;;;;;8.99;100.00;99085.41;5037297;28;20368;-73
2024/01/03 11:47:40;;;;;;;;;;;;;;;8.90;100.00;99088.31;5035162;28;19921;-73
2024/01/03 11:50:07;;;;;;;;;;;;;;;8.82;100.00;99087.69;5037345;28;20327;-74
2024/01/03 11:52:36;;;;;;;;;;;;;;;8.84;100.00;99084.13;5021429;28;19925;-75
2024/01/03 11:55:10;;;;;;;;;;;;;;;8.67;100.00;99079.44;5037290;28;19919;-74
2024/01/03 11:57:36;;;;;;;;;;;;;;;8.61;100.00;99079.66;5037035;28;19993;-74
2024/01/03 12:00:03;;;;;;;;;;;;;;;8.62;100.00;99076.16;5020876;28;19971;-74
2024/01/03 12:02:28;;;;;;;;;;;;;;;8.64;100.00;99079.56;5012677;28;19960;-74
2024/01/03 12:05:00;;;;;;;;;;;;;;;8.60;100.00;99061.44;5013931;28;19963;-74
2024/01/03 12:07:26;;;;;;;;;;;;;;;8.53;100.00;99065.97;5027962;28;19921;-74
2024/01/03 12:09:52;;;;;;;;;;;;;;;8.47;100.00;99063.56;5020287;28;19962;-74
2024/01/03 12:12:18;;;;;;;;;;;;;;;8.45;100.00;99068.84;5036175;28;19921;-74
2024/01/03 12:14:49;;;;;;;;;;;;;;;8.36;100.00;99066.50;5020668;28;19921;-74
2024/01/03 12:17:22;;;;;;;;;;;;;;;8.31;100.00;99066.63;5036886;28;19944;-74
2024/01/03 12:19:48;;;;;;;;;;;;;;;8.20;100.00;99058.28;5036347;28;20455;-74
2024/01/03 12:22:19;;;;;;;;;;;;;;;8.11;100.00;99048.97;5007497;28;20085;-74
2024/01/03 12:24:45;;;;;;;;;;;;;;;8.05;100.00;99043.09;5016035;28;19917;-74
2024/01/03 12:27:10;;;;;;;;;;;;;;;7.98;100.00;99045.03;4999903;28;19928;-74
2024/01/03 12:29:41;;;;;;;;;;;;;;;7.92;100.00;99053.06;5019985;28;19948;-74
2024/01/03 12:32:25;;;;;;;;;;;;;;;7.98;100.00;99050.25;5074103;28;20375;-75
2024/01/03 12:35:00;;;;;;;;;;;;;;;8.35;100.00;99043.91;5059423;28;19931;-75
2024/01/03 12:37:25;;;;;;;;;;;;;;;8.78;100.00;99047.78;5076420;28;19965;-75
2024/01/03 12:39:50;;;;;;;;;;;;;;;9.30;100.00;99049.53;5059447;28;19920;-75
2024/01/03 12:42:15;;;;;;;;;;;;;;;9.64;100.00;99046.53;5075862;28;19912;-75
2024/01/03 12:44:43;;;;;;;;;;;;;;;9.45;100.00;99048.09;5059730;28;20007;-74
2024/01/03 12:47:09;;;;;;;;;;;;;;;9.42;100.00;99035.16;5056603;28;20296;-74
2024/01/03 12:49:35;;;;;;;;;;;;;;;10.09;100.00;99029.16;5039287;28;20364;-74